sensor_id;sensor_type;location;lat;lon;timestamp;pressure;altitude;pressure_sealevel;temperature
69186;BMP280;56298;49.246;9.410;2023-04-03T00:00:05;100310.78;;;4.38
69186;BMP280;56298;49.246;9.410;2023-04-03T00:02:30;100309.41;;;4.41
69186;BMP280;56298;49.246;9.410;2023-04-03T00:04:56;100303.66;;;4.48
69186;BMP280;56298;49.246;9.410;2023-04-03T00:07:21;100304.97;;;4.50
69186;BMP280;56298;49.246;9.410;2023-04-03T00:09:46;100305.06;;;4.40
69186;BMP280;56298;49.246;9.410;2023-04-03T00:12:11;100306.59;;;4.51
69186;BMP280;56298;49.246;9.410;2023-04-03T00:14:37;100304.06;;;4.60
69186;BMP280;56298;49.246;9.410;2023-04-03T00:17:02;100304.53;;;4.38
69186;BMP280;56298;49.246;9.410;2023-04-03T00:19:27;100309.22;;;4.27
69186;BMP280;56298;49.246;9.410;2023-04-03T00:21:52;100311.66;;;4.29
69186;BMP280;56298;49.246;9.410;2023-04-03T00:24:18;100309.31;;;4.17
69186;BMP280;56298;49.246;9.410;2023-04-03T00:26:43;100309.69;;;4.39
69186;BMP280;56298;49.246;9.410;2023-04-03T00:29:09;100303.72;;;4.37
69186;BMP280;56298;49.246;9.410;2023-04-03T00:31:34;100300.94;;;4.13
69186;BMP280;56298;49.246;9.410;2023-04-03T00:33:59;100299.31;;;4.07
69186;BMP280;56298;49.246;9.410;2023-04-03T00:36:25;100302.69;;;4.33
69186;BMP280;56298;49.246;9.410;2023-04-03T00:38:50;100303.59;;;4.53
69186;BMP280;56298;49.246;9.410;2023-04-03T00:41:15;100303.66;;;4.48
69186;BMP280;56298;49.246;9.410;2023-04-03T00:43:41;100306.19;;;4.34
69186;BMP280;56298;49.246;9.410;2023-04-03T00:46:06;100300.22;;;4.37
69186;BMP280;56298;49.246;9.410;2023-04-03T00:48:35;100309.84;;;4.24
69186;BMP280;56298;49.246;9.410;2023-04-03T00:51:03;100311.34;;;4.35
69186;BMP280;56298;49.246;9.410;2023-04-03T00:54:14;100316.13;;;4.49
69186;BMP280;56298;49.246;9.410;2023-04-03T00:56:23;100312.72;;;4.33
69186;BMP280;56298;49.246;9.410;2023-04-03T00:59:10;100301.38;;;4.25
69186;BMP280;56298;49.246;9.410;2023-04-03T01:01:36;100305.13;;;4.30
69186;BMP280;56298;49.246;9.410;2023-04-03T01:04:02;100307.72;;;4.16
69186;BMP280;56298;49.246;9.410;2023-04-03T01:06:31;100300.63;;;4.20
69186;BMP280;56298;49.246;9.410;2023-04-03T01:08:58;100304.56;;;3.98
69186;BMP280;56298;49.246;9.410;2023-04-03T01:11:25;100299.94;;;4.04
69186;BMP280;56298;49.246;9.410;2023-04-03T01:13:51;100294.72;;;4.07
69186;BMP280;56298;49.246;9.410;2023-04-03T01:16:16;100295.88;;;4.01
69186;BMP280;56298;49.246;9.410;2023-04-03T01:18:42;100296.94;;;4.00
69186;BMP280;56298;49.246;9.410;2023-04-03T01:26:31;100303.34;;;3.80
69186;BMP280;56298;49.246;9.410;2023-04-03T01:28:58;100295.75;;;3.77
69186;BMP280;56298;49.246;9.410;2023-04-03T01:31:28;100308.44;;;3.87
69186;BMP280;56298;49.246;9.410;2023-04-03T01:33:55;100306.34;;;3.78
69186;BMP280;56298;49.246;9.410;2023-04-03T01:36:26;100307.63;;;3.86
69186;BMP280;56298;49.246;9.410;2023-04-03T01:38:52;100316.81;;;3.95
69186;BMP280;56298;49.246;9.410;2023-04-03T01:41:18;100309.91;;;4.08
69186;BMP280;56298;49.246;9.410;2023-04-03T01:43:43;100317.22;;;4.13
69186;BMP280;56298;49.246;9.410;2023-04-03T01:46:09;100315.09;;;4.05
69186;BMP280;56298;49.246;9.410;2023-04-03T01:48:35;100319.75;;;3.99
69186;BMP280;56298;49.246;9.410;2023-04-03T01:51:00;100318.56;;;4.16
69186;BMP280;56298;49.246;9.410;2023-04-03T01:53:26;100315.63;;;4.07
69186;BMP280;56298;49.246;9.410;2023-04-03T01:55:51;100320.34;;;3.91
69186;BMP280;56298;49.246;9.410;2023-04-03T01:58:16;100317.66;;;3.85
69186;BMP280;56298;49.246;9.410;2023-04-03T02:00:41;100313.69;;;4.12
69186;BMP280;56298;49.246;9.410;2023-04-03T02:03:07;100312.69;;;4.03
69186;BMP280;56298;49.246;9.410;2023-04-03T02:05:32;100321.38;;;4.00
69186;BMP280;56298;49.246;9.410;2023-04-03T02:07:58;100320.88;;;3.93
69186;BMP280;56298;49.246;9.410;2023-04-03T02:10:23;100321.97;;;3.92
69186;BMP280;56298;49.246;9.410;2023-04-03T02:12:48;100321.16;;;3.91
69186;BMP280;56298;49.246;9.410;2023-04-03T02:15:13;100316.56;;;3.92
69186;BMP280;56298;49.246;9.410;2023-04-03T02:17:39;100317.94;;;3.84
69186;BMP280;56298;49.246;9.410;2023-04-03T02:20:05;100318.53;;;3.81
69186;BMP280;56298;49.246;9.410;2023-04-03T02:22:30;100314.91;;;3.91
69186;BMP280;56298;49.246;9.410;2023-04-03T02:24:55;100316.59;;;3.87
69186;BMP280;56298;49.246;9.410;2023-04-03T02:27:21;100307.28;;;3.98
69186;BMP280;56298;49.246;9.410;2023-04-03T02:29:46;100315.16;;;3.99
69186;BMP280;56298;49.246;9.410;2023-04-03T02:32:11;100317.63;;;3.91
69186;BMP280;56298;49.246;9.410;2023-04-03T02:34:36;100316.84;;;3.85
69186;BMP280;56298;49.246;9.410;2023-04-03T02:37:02;100305.84;;;3.66
69186;BMP280;56298;49.246;9.410;2023-04-03T02:39:27;100308.03;;;3.64
69186;BMP280;56298;49.246;9.410;2023-04-03T02:41:53;100311.22;;;3.76
69186;BMP280;56298;49.246;9.410;2023-04-03T02:44:18;100314.22;;;3.75
69186;BMP280;56298;49.246;9.410;2023-04-03T02:46:44;100315.59;;;3.72
69186;BMP280;56298;49.246;9.410;2023-04-03T02:49:09;100314.25;;;3.64
69186;BMP280;56298;49.246;9.410;2023-04-03T02:51:34;100308.66;;;3.50
69186;BMP280;56298;49.246;9.410;2023-04-03T02:54:00;100321.97;;;3.41
69186;BMP280;56298;49.246;9.410;2023-04-03T02:56:25;100317.06;;;3.43
69186;BMP280;56298;49.246;9.410;2023-04-03T02:58:52;100317.41;;;3.26
69186;BMP280;56298;49.246;9.410;2023-04-03T03:01:18;100317.44;;;3.05
69186;BMP280;56298;49.246;9.410;2023-04-03T03:03:43;100309.59;;;3.04
69186;BMP280;56298;49.246;9.410;2023-04-03T03:06:11;100311.56;;;2.83
69186;BMP280;56298;49.246;9.410;2023-04-03T03:08:37;100315.09;;;2.68
69186;BMP280;56298;49.246;9.410;2023-04-03T03:11:04;100313.75;;;2.60
69186;BMP280;56298;49.246;9.410;2023-04-03T03:13:30;100313.75;;;2.55
69186;BMP280;56298;49.246;9.410;2023-04-03T03:15:56;100321.88;;;2.55
69186;BMP280;56298;49.246;9.410;2023-04-03T03:18:21;100320.78;;;2.35
69186;BMP280;56298;49.246;9.410;2023-04-03T03:20:51;100313.72;;;2.29
69186;BMP280;56298;49.246;9.410;2023-04-03T03:23:16;100316.16;;;2.35
69186;BMP280;56298;49.246;9.410;2023-04-03T03:25:41;100315.63;;;2.28
69186;BMP280;56298;49.246;9.410;2023-04-03T03:28:07;100317.53;;;2.28
69186;BMP280;56298;49.246;9.410;2023-04-03T03:30:33;100317.50;;;2.17
69186;BMP280;56298;49.246;9.410;2023-04-03T03:32:58;100315.06;;;2.10
69186;BMP280;56298;49.246;9.410;2023-04-03T03:35:23;100318.28;;;2.02
69186;BMP280;56298;49.246;9.410;2023-04-03T03:37:49;100312.28;;;1.95
69186;BMP280;56298;49.246;9.410;2023-04-03T03:40:15;100319.88;;;1.82
69186;BMP280;56298;49.246;9.410;2023-04-03T03:42:40;100325.53;;;1.81
69186;BMP280;56298;49.246;9.410;2023-04-03T03:45:06;100324.72;;;1.80
69186;BMP280;56298;49.246;9.410;2023-04-03T03:47:31;100315.81;;;1.80
69186;BMP280;56298;49.246;9.410;2023-04-03T03:49:57;100304.44;;;1.83
69186;BMP280;56298;49.246;9.410;2023-04-03T03:52:22;100317.63;;;1.64
69186;BMP280;56298;49.246;9.410;2023-04-03T03:54:47;100325.97;;;1.57
69186;BMP280;56298;49.246;9.410;2023-04-03T03:57:13;100327.31;;;1.54
69186;BMP280;56298;49.246;9.410;2023-04-03T03:59:38;100323.28;;;1.57
69186;BMP280;56298;49.246;9.410;2023-04-03T04:02:05;100322.81;;;1.70
69186;BMP280;56298;49.246;9.410;2023-04-03T04:04:30;100319.03;;;1.77
69186;BMP280;56298;49.246;9.410;2023-04-03T04:06:56;100316.81;;;1.68
69186;BMP280;56298;49.246;9.410;2023-04-03T04:09:21;100322.50;;;1.67
69186;BMP280;56298;49.246;9.410;2023-04-03T04:11:46;100328.97;;;1.66
69186;BMP280;56298;49.246;9.410;2023-04-03T04:14:11;100324.56;;;1.44
69186;BMP280;56298;49.246;9.410;2023-04-03T04:16:38;100321.56;;;1.40
69186;BMP280;56298;49.246;9.410;2023-04-03T04:19:03;100325.84;;;1.31
69186;BMP280;56298;49.246;9.410;2023-04-03T04:21:29;100327.50;;;1.32
69186;BMP280;56298;49.246;9.410;2023-04-03T04:23:54;100326.94;;;1.30
69186;BMP280;56298;49.246;9.410;2023-04-03T04:26:19;100330.91;;;1.12
69186;BMP280;56298;49.246;9.410;2023-04-03T04:28:46;100328.75;;;1.19
69186;BMP280;56298;49.246;9.410;2023-04-03T04:31:11;100326.00;;;1.09
69186;BMP280;56298;49.246;9.410;2023-04-03T04:33:36;100328.53;;;1.26
69186;BMP280;56298;49.246;9.410;2023-04-03T04:36:02;100328.28;;;1.27
69186;BMP280;56298;49.246;9.410;2023-04-03T04:38:27;100334.53;;;1.33
69186;BMP280;56298;49.246;9.410;2023-04-03T04:40:52;100328.31;;;1.43
69186;BMP280;56298;49.246;9.410;2023-04-03T04:43:17;100326.72;;;1.47
69186;BMP280;56298;49.246;9.410;2023-04-03T04:45:43;100332.13;;;1.47
69186;BMP280;56298;49.246;9.410;2023-04-03T04:48:08;100334.59;;;1.49
69186;BMP280;56298;49.246;9.410;2023-04-03T04:50:33;100329.41;;;1.37
69186;BMP280;56298;49.246;9.410;2023-04-03T04:52:59;100332.38;;;1.40
69186;BMP280;56298;49.246;9.410;2023-04-03T04:55:24;100333.69;;;1.27
69186;BMP280;56298;49.246;9.410;2023-04-03T04:57:50;100335.63;;;1.32
69186;BMP280;56298;49.246;9.410;2023-04-03T05:00:15;100335.38;;;1.44
69186;BMP280;56298;49.246;9.410;2023-04-03T05:02:41;100335.41;;;1.49
69186;BMP280;56298;49.246;9.410;2023-04-03T05:05:06;100338.66;;;1.56
69186;BMP280;56298;49.246;9.410;2023-04-03T05:07:32;100336.34;;;1.76
69186;BMP280;56298;49.246;9.410;2023-04-03T05:09:57;100340.66;;;1.77
69186;BMP280;56298;49.246;9.410;2023-04-03T05:12:22;100342.53;;;1.76
69186;BMP280;56298;49.246;9.410;2023-04-03T05:14:48;100340.63;;;1.66
69186;BMP280;56298;49.246;9.410;2023-04-03T05:17:13;100342.88;;;1.85
69186;BMP280;56298;49.246;9.410;2023-04-03T05:19:38;100343.69;;;1.96
69186;BMP280;56298;49.246;9.410;2023-04-03T05:22:03;100344.81;;;2.10
69186;BMP280;56298;49.246;9.410;2023-04-03T05:24:29;100349.09;;;1.96
69186;BMP280;56298;49.246;9.410;2023-04-03T05:26:54;100349.13;;;2.01
69186;BMP280;56298;49.246;9.410;2023-04-03T05:29:20;100350.50;;;2.19
69186;BMP280;56298;49.246;9.410;2023-04-03T05:31:46;100354.84;;;3.03
69186;BMP280;56298;49.246;9.410;2023-04-03T05:34:11;100350.16;;;4.01
69186;BMP280;56298;49.246;9.410;2023-04-03T05:36:36;100364.28;;;5.02
69186;BMP280;56298;49.246;9.410;2023-04-03T05:39:02;100356.94;;;5.52
69186;BMP280;56298;49.246;9.410;2023-04-03T05:41:27;100364.59;;;6.07
69186;BMP280;56298;49.246;9.410;2023-04-03T05:43:53;100357.19;;;6.27
69186;BMP280;56298;49.246;9.410;2023-04-03T05:46:19;100358.56;;;7.05
69186;BMP280;56298;49.246;9.410;2023-04-03T05:48:45;100354.53;;;7.30
69186;BMP280;56298;49.246;9.410;2023-04-03T05:51:25;100353.00;;;7.38
69186;BMP280;56298;49.246;9.410;2023-04-03T05:53:58;100357.63;;;7.88
69186;BMP280;56298;49.246;9.410;2023-04-03T05:56:25;100358.50;;;8.20
69186;BMP280;56298;49.246;9.410;2023-04-03T05:58:51;100360.56;;;8.38
69186;BMP280;56298;49.246;9.410;2023-04-03T06:01:18;100365.56;;;8.44
69186;BMP280;56298;49.246;9.410;2023-04-03T06:03:46;100357.53;;;9.29
69186;BMP280;56298;49.246;9.410;2023-04-03T06:06:13;100367.84;;;9.32
69186;BMP280;56298;49.246;9.410;2023-04-03T06:08:39;100361.09;;;9.29
69186;BMP280;56298;49.246;9.410;2023-04-03T06:11:04;100366.75;;;9.59
69186;BMP280;56298;49.246;9.410;2023-04-03T06:13:30;100363.72;;;9.70
69186;BMP280;56298;49.246;9.410;2023-04-03T06:15:55;100366.09;;;10.24
69186;BMP280;56298;49.246;9.410;2023-04-03T06:18:21;100373.13;;;10.34
69186;BMP280;56298;49.246;9.410;2023-04-03T06:20:46;100365.41;;;10.27
69186;BMP280;56298;49.246;9.410;2023-04-03T06:23:11;100366.28;;;10.58
69186;BMP280;56298;49.246;9.410;2023-04-03T06:25:37;100360.97;;;11.43
69186;BMP280;56298;49.246;9.410;2023-04-03T06:28:11;100365.34;;;10.93
69186;BMP280;56298;49.246;9.410;2023-04-03T06:30:36;100368.75;;;10.90
69186;BMP280;56298;49.246;9.410;2023-04-03T06:33:02;100368.88;;;10.93
69186;BMP280;56298;49.246;9.410;2023-04-03T06:35:28;100358.66;;;11.03
69186;BMP280;56298;49.246;9.410;2023-04-03T06:37:55;100371.75;;;11.27
69186;BMP280;56298;49.246;9.410;2023-04-03T06:40:24;100376.34;;;11.14
69186;BMP280;56298;49.246;9.410;2023-04-03T06:42:51;100383.69;;;10.62
69186;BMP280;56298;49.246;9.410;2023-04-03T06:45:16;100380.41;;;10.78
69186;BMP280;56298;49.246;9.410;2023-04-03T06:47:42;100384.97;;;10.65
69186;BMP280;56298;49.246;9.410;2023-04-03T06:50:09;100395.56;;;10.36
69186;BMP280;56298;49.246;9.410;2023-04-03T06:52:36;100395.91;;;9.64
69186;BMP280;56298;49.246;9.410;2023-04-03T06:55:01;100391.84;;;9.35
69186;BMP280;56298;49.246;9.410;2023-04-03T06:57:27;100403.78;;;9.48
69186;BMP280;56298;49.246;9.410;2023-04-03T06:59:52;100393.44;;;10.42
69186;BMP280;56298;49.246;9.410;2023-04-03T07:02:17;100398.78;;;10.38
69186;BMP280;56298;49.246;9.410;2023-04-03T07:04:43;100394.13;;;10.78
69186;BMP280;56298;49.246;9.410;2023-04-03T07:07:08;100397.84;;;9.64
69186;BMP280;56298;49.246;9.410;2023-04-03T07:09:34;100403.03;;;9.07
69186;BMP280;56298;49.246;9.410;2023-04-03T07:11:59;100404.88;;;8.89
69186;BMP280;56298;49.246;9.410;2023-04-03T07:14:25;100420.25;;;8.76
69186;BMP280;56298;49.246;9.410;2023-04-03T07:16:50;100407.94;;;9.28
69186;BMP280;56298;49.246;9.410;2023-04-03T07:19:15;100410.91;;;9.93
69186;BMP280;56298;49.246;9.410;2023-04-03T07:21:43;100419.88;;;10.47
69186;BMP280;56298;49.246;9.410;2023-04-03T07:24:08;100416.19;;;10.90
69186;BMP280;56298;49.246;9.410;2023-04-03T07:26:33;100418.00;;;10.77
69186;BMP280;56298;49.246;9.410;2023-04-03T07:28:59;100416.66;;;10.53
69186;BMP280;56298;49.246;9.410;2023-04-03T07:31:25;100422.53;;;9.99
69186;BMP280;56298;49.246;9.410;2023-04-03T07:33:52;100419.00;;;11.11
69186;BMP280;56298;49.246;9.410;2023-04-03T07:36:19;100428.72;;;10.61
69186;BMP280;56298;49.246;9.410;2023-04-03T07:38:45;100428.44;;;10.27
69186;BMP280;56298;49.246;9.410;2023-04-03T07:41:14;100430.56;;;9.11
69186;BMP280;56298;49.246;9.410;2023-04-03T07:43:40;100428.59;;;8.39
69186;BMP280;56298;49.246;9.410;2023-04-03T07:46:06;100429.72;;;8.38
69186;BMP280;56298;49.246;9.410;2023-04-03T07:48:31;100431.31;;;8.16
69186;BMP280;56298;49.246;9.410;2023-04-03T07:51:00;100430.81;;;8.14
69186;BMP280;56298;49.246;9.410;2023-04-03T07:53:27;100436.78;;;7.51
69186;BMP280;56298;49.246;9.410;2023-04-03T07:55:52;100433.16;;;7.42
69186;BMP280;56298;49.246;9.410;2023-04-03T07:58:20;100435.78;;;7.98
69186;BMP280;56298;49.246;9.410;2023-04-03T08:00:46;100454.53;;;8.05
69186;BMP280;56298;49.246;9.410;2023-04-03T08:03:12;100458.38;;;7.76
69186;BMP280;56298;49.246;9.410;2023-04-03T08:05:42;100457.28;;;7.77
69186;BMP280;56298;49.246;9.410;2023-04-03T08:08:09;100454.59;;;8.00
69186;BMP280;56298;49.246;9.410;2023-04-03T08:10:35;100459.75;;;8.01
69186;BMP280;56298;49.246;9.410;2023-04-03T08:13:01;100444.19;;;8.02
69186;BMP280;56298;49.246;9.410;2023-04-03T08:15:26;100454.88;;;8.12
69186;BMP280;56298;49.246;9.410;2023-04-03T08:17:52;100452.59;;;8.05
69186;BMP280;56298;49.246;9.410;2023-04-03T08:20:17;100449.56;;;8.30
69186;BMP280;56298;49.246;9.410;2023-04-03T08:22:42;100462.94;;;7.38
69186;BMP280;56298;49.246;9.410;2023-04-03T08:25:08;100452.13;;;7.75
69186;BMP280;56298;49.246;9.410;2023-04-03T08:27:34;100457.25;;;8.05
69186;BMP280;56298;49.246;9.410;2023-04-03T08:29:59;100461.00;;;7.95
69186;BMP280;56298;49.246;9.410;2023-04-03T08:32:25;100464.78;;;8.22
69186;BMP280;56298;49.246;9.410;2023-04-03T08:34:50;100461.75;;;8.24
69186;BMP280;56298;49.246;9.410;2023-04-03T08:37:15;100466.69;;;7.85
69186;BMP280;56298;49.246;9.410;2023-04-03T08:39:42;100461.69;;;8.38
69186;BMP280;56298;49.246;9.410;2023-04-03T08:42:17;100472.19;;;8.99
69186;BMP280;56298;49.246;9.410;2023-04-03T08:44:57;100469.44;;;8.90
69186;BMP280;56298;49.246;9.410;2023-04-03T08:50:19;100469.31;;;8.72
69186;BMP280;56298;49.246;9.410;2023-04-03T08:52:56;100469.97;;;9.01
69186;BMP280;56298;49.246;9.410;2023-04-03T08:55:34;100468.53;;;9.03
69186;BMP280;56298;49.246;9.410;2023-04-03T08:58:04;100462.34;;;9.70
69186;BMP280;56298;49.246;9.410;2023-04-03T09:00:41;100468.69;;;9.48
69186;BMP280;56298;49.246;9.410;2023-04-03T09:03:13;100467.44;;;9.13
69186;BMP280;56298;49.246;9.410;2023-04-03T09:10:46;100465.97;;;8.75
69186;BMP280;56298;49.246;9.410;2023-04-03T09:13:21;100462.97;;;8.86
69186;BMP280;56298;49.246;9.410;2023-04-03T09:15:47;100466.28;;;8.74
69186;BMP280;56298;49.246;9.410;2023-04-03T09:23:42;100467.47;;;9.80
69186;BMP280;56298;49.246;9.410;2023-04-03T09:26:21;100472.19;;;9.97
69186;BMP280;56298;49.246;9.410;2023-04-03T09:28:49;100466.34;;;9.72
69186;BMP280;56298;49.246;9.410;2023-04-03T09:33:46;100470.69;;;9.73
69186;BMP280;56298;49.246;9.410;2023-04-03T09:36:12;100469.22;;;9.58
69186;BMP280;56298;49.246;9.410;2023-04-03T09:38:38;100467.00;;;9.96
69186;BMP280;56298;49.246;9.410;2023-04-03T09:41:14;100457.47;;;9.76
69186;BMP280;56298;49.246;9.410;2023-04-03T09:43:52;100463.59;;;9.72
69186;BMP280;56298;49.246;9.410;2023-04-03T09:46:33;100461.63;;;9.55
69186;BMP280;56298;49.246;9.410;2023-04-03T09:49:03;100451.00;;;9.63
69186;BMP280;56298;49.246;9.410;2023-04-03T09:51:29;100465.25;;;9.33
69186;BMP280;56298;49.246;9.410;2023-04-03T09:53:55;100457.38;;;8.91
69186;BMP280;56298;49.246;9.410;2023-04-03T09:56:31;100459.78;;;9.33
69186;BMP280;56298;49.246;9.410;2023-04-03T10:01:37;100454.75;;;9.84
69186;BMP280;56298;49.246;9.410;2023-04-03T10:06:38;100457.84;;;9.25
69186;BMP280;56298;49.246;9.410;2023-04-03T10:14:21;100464.09;;;9.92
69186;BMP280;56298;49.246;9.410;2023-04-03T10:16:53;100455.84;;;10.45
69186;BMP280;56298;49.246;9.410;2023-04-03T10:19:34;100449.94;;;10.17
69186;BMP280;56298;49.246;9.410;2023-04-03T10:22:15;100449.91;;;9.81
69186;BMP280;56298;49.246;9.410;2023-04-03T10:27:37;100455.50;;;9.50
69186;BMP280;56298;49.246;9.410;2023-04-03T10:41:41;100443.97;;;9.88
69186;BMP280;56298;49.246;9.410;2023-04-03T10:44:25;100434.97;;;9.96
69186;BMP280;56298;49.246;9.410;2023-04-03T10:49:58;100443.78;;;9.09
69186;BMP280;56298;49.246;9.410;2023-04-03T10:55:35;100448.28;;;9.13
69186;BMP280;56298;49.246;9.410;2023-04-03T10:58:01;100446.66;;;9.62
69186;BMP280;56298;49.246;9.410;2023-04-03T11:00:43;100439.84;;;9.01
69186;BMP280;56298;49.246;9.410;2023-04-03T11:03:17;100433.47;;;8.83
69186;BMP280;56298;49.246;9.410;2023-04-03T11:05:53;100434.38;;;9.01
69186;BMP280;56298;49.246;9.410;2023-04-03T11:08:27;100446.56;;;8.86
69186;BMP280;56298;49.246;9.410;2023-04-03T11:10:57;100430.13;;;9.26
69186;BMP280;56298;49.246;9.410;2023-04-03T11:16:36;100421.81;;;8.91
69186;BMP280;56298;49.246;9.410;2023-04-03T11:19:19;100423.22;;;9.29
69186;BMP280;56298;49.246;9.410;2023-04-03T11:24:39;100435.41;;;10.16
69186;BMP280;56298;49.246;9.410;2023-04-03T11:27:13;100428.13;;;10.29
69186;BMP280;56298;49.246;9.410;2023-04-03T11:29:44;100423.63;;;10.15
69186;BMP280;56298;49.246;9.410;2023-04-03T11:32:42;100426.22;;;10.21
69186;BMP280;56298;49.246;9.410;2023-04-03T11:35:12;100422.69;;;11.16
69186;BMP280;56298;49.246;9.410;2023-04-03T11:37:41;100422.19;;;11.95
69186;BMP280;56298;49.246;9.410;2023-04-03T11:42:46;100418.50;;;10.79
69186;BMP280;56298;49.246;9.410;2023-04-03T11:47:51;100418.31;;;9.84
69186;BMP280;56298;49.246;9.410;2023-04-03T12:16:32;100393.84;;;9.79
69186;BMP280;56298;49.246;9.410;2023-04-03T12:19:03;100387.44;;;9.16
69186;BMP280;56298;49.246;9.410;2023-04-03T12:24:02;100383.13;;;9.33
69186;BMP280;56298;49.246;9.410;2023-04-03T12:29:39;100384.47;;;9.88
69186;BMP280;56298;49.246;9.410;2023-04-03T12:32:22;100386.41;;;9.62
69186;BMP280;56298;49.246;9.410;2023-04-03T12:37:57;100376.56;;;9.52
69186;BMP280;56298;49.246;9.410;2023-04-03T12:45:27;100377.81;;;10.34
69186;BMP280;56298;49.246;9.410;2023-04-03T12:47:55;100379.91;;;10.28
69186;BMP280;56298;49.246;9.410;2023-04-03T12:50:30;100378.06;;;9.58
69186;BMP280;56298;49.246;9.410;2023-04-03T12:53:02;100375.84;;;9.20
69186;BMP280;56298;49.246;9.410;2023-04-03T12:55:29;100381.16;;;9.07
69186;BMP280;56298;49.246;9.410;2023-04-03T12:57:54;100366.88;;;9.19
69186;BMP280;56298;49.246;9.410;2023-04-03T13:02:45;100364.91;;;9.11
69186;BMP280;56298;49.246;9.410;2023-04-03T13:05:17;100361.69;;;9.09
69186;BMP280;56298;49.246;9.410;2023-04-03T13:07:43;100367.56;;;8.93
69186;BMP280;56298;49.246;9.410;2023-04-03T13:12:55;100363.28;;;8.69
69186;BMP280;56298;49.246;9.410;2023-04-03T13:15:23;100367.41;;;8.98
69186;BMP280;56298;49.246;9.410;2023-04-03T13:17:50;100364.03;;;9.77
69186;BMP280;56298;49.246;9.410;2023-04-03T13:20:25;100357.91;;;10.63
69186;BMP280;56298;49.246;9.410;2023-04-03T13:22:55;100349.03;;;10.57
69186;BMP280;56298;49.246;9.410;2023-04-03T13:25:23;100358.03;;;9.31
69186;BMP280;56298;49.246;9.410;2023-04-03T13:27:49;100351.56;;;9.18
69186;BMP280;56298;49.246;9.410;2023-04-03T13:30:26;100358.75;;;9.05
69186;BMP280;56298;49.246;9.410;2023-04-03T13:32:53;100358.03;;;9.40
69186;BMP280;56298;49.246;9.410;2023-04-03T13:35:32;100369.94;;;9.44
69186;BMP280;56298;49.246;9.410;2023-04-03T13:38:02;100355.03;;;8.92
69186;BMP280;56298;49.246;9.410;2023-04-03T13:40:28;100355.69;;;9.07
69186;BMP280;56298;49.246;9.410;2023-04-03T13:43:03;100364.97;;;9.55
69186;BMP280;56298;49.246;9.410;2023-04-03T13:45:29;100345.97;;;9.94
69186;BMP280;56298;49.246;9.410;2023-04-03T13:48:16;100349.78;;;9.22
69186;BMP280;56298;49.246;9.410;2023-04-03T13:51:05;100361.66;;;8.59
69186;BMP280;56298;49.246;9.410;2023-04-03T13:53:32;100360.97;;;8.54
69186;BMP280;56298;49.246;9.410;2023-04-03T13:58:28;100347.97;;;9.00
69186;BMP280;56298;49.246;9.410;2023-04-03T14:01:14;100347.53;;;9.24
69186;BMP280;56298;49.246;9.410;2023-04-03T14:03:45;100354.50;;;9.39
69186;BMP280;56298;49.246;9.410;2023-04-03T14:06:14;100339.66;;;9.31
69186;BMP280;56298;49.246;9.410;2023-04-03T14:08:40;100342.81;;;8.98
69186;BMP280;56298;49.246;9.410;2023-04-03T14:11:10;100341.31;;;8.83
69186;BMP280;56298;49.246;9.410;2023-04-03T14:13:37;100344.31;;;8.41
69186;BMP280;56298;49.246;9.410;2023-04-03T14:16:03;100351.50;;;8.28
69186;BMP280;56298;49.246;9.410;2023-04-03T14:18:28;100341.66;;;8.50
69186;BMP280;56298;49.246;9.410;2023-04-03T14:20:53;100331.50;;;8.82
69186;BMP280;56298;49.246;9.410;2023-04-03T14:23:18;100325.88;;;8.87
69186;BMP280;56298;49.246;9.410;2023-04-03T14:25:45;100327.66;;;8.92
69186;BMP280;56298;49.246;9.410;2023-04-03T14:28:18;100326.16;;;8.77
69186;BMP280;56298;49.246;9.410;2023-04-03T14:30:45;100324.88;;;8.43
69186;BMP280;56298;49.246;9.410;2023-04-03T14:33:15;100327.19;;;8.49
69186;BMP280;56298;49.246;9.410;2023-04-03T14:35:40;100325.78;;;8.29
69186;BMP280;56298;49.246;9.410;2023-04-03T14:38:21;100322.69;;;8.54
69186;BMP280;56298;49.246;9.410;2023-04-03T14:40:47;100329.03;;;9.21
69186;BMP280;56298;49.246;9.410;2023-04-03T14:43:13;100328.41;;;9.51
69186;BMP280;56298;49.246;9.410;2023-04-03T14:45:38;100323.25;;;9.49
69186;BMP280;56298;49.246;9.410;2023-04-03T14:48:06;100316.88;;;8.96
69186;BMP280;56298;49.246;9.410;2023-04-03T14:50:34;100318.22;;;8.67
69186;BMP280;56298;49.246;9.410;2023-04-03T14:53:00;100321.00;;;8.12
69186;BMP280;56298;49.246;9.410;2023-04-03T14:55:26;100315.72;;;8.16
69186;BMP280;56298;49.246;9.410;2023-04-03T14:57:52;100316.53;;;8.16
69186;BMP280;56298;49.246;9.410;2023-04-03T15:00:20;100309.19;;;8.57
69186;BMP280;56298;49.246;9.410;2023-04-03T15:02:45;100310.63;;;8.95
69186;BMP280;56298;49.246;9.410;2023-04-03T15:05:12;100309.91;;;8.72
69186;BMP280;56298;49.246;9.410;2023-04-03T15:07:41;100320.66;;;8.05
69186;BMP280;56298;49.246;9.410;2023-04-03T15:10:29;100317.41;;;7.80
69186;BMP280;56298;49.246;9.410;2023-04-03T15:12:55;100313.16;;;7.74
69186;BMP280;56298;49.246;9.410;2023-04-03T15:15:22;100315.66;;;7.61
69186;BMP280;56298;49.246;9.410;2023-04-03T15:17:52;100319.38;;;7.65
69186;BMP280;56298;49.246;9.410;2023-04-03T15:20:21;100317.97;;;7.91
69186;BMP280;56298;49.246;9.410;2023-04-03T15:22:47;100313.38;;;8.00
69186;BMP280;56298;49.246;9.410;2023-04-03T15:25:13;100309.44;;;8.38
69186;BMP280;56298;49.246;9.410;2023-04-03T15:27:39;100295.00;;;8.46
69186;BMP280;56298;49.246;9.410;2023-04-03T15:30:07;100298.47;;;8.06
69186;BMP280;56298;49.246;9.410;2023-04-03T15:32:33;100298.00;;;8.04
69186;BMP280;56298;49.246;9.410;2023-04-03T15:34:59;100313.94;;;7.88
69186;BMP280;56298;49.246;9.410;2023-04-03T15:37:25;100308.69;;;7.55
69186;BMP280;56298;49.246;9.410;2023-04-03T15:39:50;100301.28;;;7.33
69186;BMP280;56298;49.246;9.410;2023-04-03T15:42:15;100296.59;;;7.33
69186;BMP280;56298;49.246;9.410;2023-04-03T15:44:40;100303.38;;;7.36
69186;BMP280;56298;49.246;9.410;2023-04-03T15:47:06;100299.88;;;7.35
69186;BMP280;56298;49.246;9.410;2023-04-03T15:49:34;100297.44;;;7.34
69186;BMP280;56298;49.246;9.410;2023-04-03T15:52:00;100300.31;;;7.37
69186;BMP280;56298;49.246;9.410;2023-04-03T15:54:25;100299.63;;;7.32
69186;BMP280;56298;49.246;9.410;2023-04-03T15:56:52;100304.31;;;7.03
69186;BMP280;56298;49.246;9.410;2023-04-03T15:59:17;100298.78;;;6.94